This is the latest recevied weather packets stored in our database for station/object KB9MLJ. If no packets are shown the sender has not sent any weather packets the latest 10 day(s).
| Time | Temp. | Humidity | Pressure | Rain* | Wind** | Luminosity | Snow |
|---|---|---|---|---|---|---|---|
| 1777653221 | 10° C | 65% | 1016.4 hPa | 0 mm | - | 788 W/m² | - |
| 1777652918 | 10° C | 65% | 1016.4 hPa | 0 mm | - | 783 W/m² | - |
| 1777652614 | 8.89° C | 69% | 1016.4 hPa | 0 mm | - | 452 W/m² | - |
| 1777652311 | 8.89° C | 68% | 1016.4 hPa | 0 mm | - | 167 W/m² | - |
| 1777652008 | 9.44° C | 67% | 1016.4 hPa | 0 mm | - | 164 W/m² | - |
| 1777651705 | 9.44° C | 67% | 1016.8 hPa | 0 mm | - | 261 W/m² | - |
| 1777651401 | 9.44° C | 71% | 1016.8 hPa | 0 mm | - | 839 W/m² | - |
| 1777651099 | 9.44° C | 72% | 1016.4 hPa | 0 mm | - | 800 W/m² | - |
| 1777650795 | 9.44° C | 73% | 1016.4 hPa | 0 mm | - | 277 W/m² | - |
| 1777650189 | 8.89° C | 75% | 1017.2 hPa | 0 mm | - | 124 W/m² | - |
| 1777649887 | 8.89° C | 74% | 1016.8 hPa | 0 mm | - | 176 W/m² | - |
| 1777649584 | 8.89° C | 76% | 1016.8 hPa | 0 mm | - | 231 W/m² | - |
| 1777649280 | 8.33° C | 77% | 1016.8 hPa | 0 mm | - | 863 W/m² | - |
| 1777648977 | 8.33° C | 76% | 1016.4 hPa | 0 mm | - | 424 W/m² | - |
| 1777648675 | 8.33° C | 74% | 1016.8 hPa | 0 mm | - | 101 W/m² | - |
| 1777648370 | 8.89° C | 74% | 1016.8 hPa | 0 mm | - | 189 W/m² | - |
| 1777648067 | 8.33° C | 75% | 1016.4 hPa | 0 mm | - | 891 W/m² | - |
| 1777647763 | 8.33° C | 76% | 1016.8 hPa | 0 mm | - | 853 W/m² | - |
| 1777647460 | 8.89° C | 76% | 1016.4 hPa | 0 mm | - | 225 W/m² | - |
| 1777647158 | 8.33° C | 77% | 1016.4 hPa | 0 mm | - | 821 W/m² | - |
| 1777646549 | 7.78° C | 79% | 1016.4 hPa | 0 mm | - | 730 W/m² | - |
| 1777646241 | 7.78° C | 80% | 1016.4 hPa | 0 mm | - | 147 W/m² | - |
| 1777645938 | 8.33° C | 80% | 1016.4 hPa | 0 mm | - | 221 W/m² | - |
| 1777645635 | 7.78° C | 81% | 1016.4 hPa | 0 mm | - | 721 W/m² | - |
| 1777645330 | 7.22° C | 81% | 1016.8 hPa | 0 mm | - | 562 W/m² | - |
* Rain latest hour (hover to see other rain measurements)
** Current wind speed in m/s (hover to see current wind gust speed)